Legend Of The Seas — C6SL5 — position and weather

sailwx.info

Track history (hours):
 
Tides and Currents Weather Stations Pressure Air Temp Water Temp Dewpoint Dewpoint Depression Visibility Wind Speed Wind Dir Waves Ship Positions

Legend Of The Seas

Operator: Royal Caribbean Cruises Ltd

Last reported at 2015-Jun-28 11:33 UTC. Time now 2015-Jun-30 08:16 UTC.
Position N 01°16' E 104°10'.

Type: Passenger vessel. MMSI: 311378000.

Date/timePositionNaut miles runAvg speedWind from/ knotsBaromVisibWave heightAir tempDewpointWater temp
2015-Jun-28 11:33N 01°16' E 104°10'1717.3
2015-Jun-28 10:33N 01°12' E 103°53'6 5.9
2015-Jun-28 09:33N 01°16' E 103°49'0 0.3
2015-Jun-28 08:32N 01°16' E 103°49'0 0.0
2015-Jun-28 07:32N 01°16' E 103°49'0 0.0
2015-Jun-28 06:32N 01°16' E 103°49'0 0.0
2015-Jun-28 05:32N 01°16' E 103°49'0 0.0
2015-Jun-28 04:32N 01°16' E 103°49'0 0.0
2015-Jun-28 03:32N 01°16' E 103°49'0 0.0
2015-Jun-28 02:32N 01°16' E 103°49'0 0.0
2015-Jun-28 01:32N 01°16' E 103°49'0 0.0
2015-Jun-28 00:23N 01°16' E 103°49'1 1.4
2015-Jun-27 23:33N 01°15' E 103°48'1212.0
2015-Jun-27 22:33N 01°13' E 103°36'7314.7
2015-Jun-27 17:33N 01°45' E 102°31'1615.9
2015-Jun-27 16:33N 01°52' E 102°16'1615.9
2015-Jun-27 15:33N 02°03' E 102°05'  
2015-Jun-25 10:33N 01°11' E 103°40'8 8.4
2015-Jun-25 09:34N 01°15' E 103°47'2 2.4
2015-Jun-25 08:32N 01°16' E 103°49'0 0.0
2015-Jun-25 07:29N 01°16' E 103°49'0 0.0
2015-Jun-25 06:32N 01°16' E 103°49'0 0.0
2015-Jun-25 05:29N 01°16' E 103°49'0 0.0
2015-Jun-25 04:29N 01°16' E 103°49'0 0.0
2015-Jun-25 03:32N 01°16' E 103°49'0 0.0
2015-Jun-25 02:29N 01°16' E 103°49'0 0.0
2015-Jun-25 01:29N 01°16' E 103°49'0 0.0
2015-Jun-25 00:29N 01°16' E 103°49'0 0.0
2015-Jun-24 23:29N 01°16' E 103°49'0 0.0
2015-Jun-24 22:29N 01°16' E 103°49'0 0.0
2015-Jun-24 21:32N 01°16' E 103°49'4 4.1
2015-Jun-24 20:33N 01°12' E 103°50'1413.7
2015-Jun-24 19:33N 01°16' E 104°03'  
2015-Jun-19 11:11S 12°15' E 130°01'1219.0
2015-Jun-19 10:33S 12°16' E 130°13'1817.7
2015-Jun-19 09:34S 12°18' E 130°32'1313.2
2015-Jun-19 08:33S 12°22' E 130°44'9 8.8
2015-Jun-19 07:33S 12°28' E 130°51'0 0.0
2015-Jun-19 06:33S 12°28' E 130°51'0 0.0
2015-Jun-19 05:33S 12°28' E 130°51'0 0.0
2015-Jun-19 04:33S 12°28' E 130°51'0 0.0
2015-Jun-19 03:33S 12°28' E 130°51'0 0.0
2015-Jun-19 02:33S 12°28' E 130°51'0 0.0
2015-Jun-19 01:33S 12°28' E 130°51'0 0.0
2015-Jun-19 00:33S 12°28' E 130°51'0 0.0
2015-Jun-18 23:33S 12°28' E 130°51'6 6.0
2015-Jun-18 22:34S 12°24' E 130°46'1111.3
2015-Jun-18 21:33S 12°13' E 130°47'1615.5
2015-Jun-18 20:33S 12°05' E 131°00'1515.3
2015-Jun-18 19:34S 12°00' E 131°15'  
Track history (hours):
 
Tides and Currents Weather Stations Pressure Air Temp Water Temp Dewpoint Dewpoint Depression Visibility Wind Speed Wind Dir Waves Ship Positions

Legend Of The Seas

Operator: Royal Caribbean Cruises Ltd

Last reported at 2015-Jun-28 11:33 UTC. Time now 2015-Jun-30 08:16 UTC.
Position N 01°16' E 104°10'.

Type: Passenger vessel. MMSI: 311378000.

Date/timePositionNaut miles runAvg speedWind from/ knotsBaromVisibWave heightAir tempDewpointWater temp
2015-Jun-28 11:33N 01°16' E 104°10'1717.3
2015-Jun-28 10:33N 01°12' E 103°53'6 5.9
2015-Jun-28 09:33N 01°16' E 103°49'0 0.3
2015-Jun-28 08:32N 01°16' E 103°49'0 0.0
2015-Jun-28 07:32N 01°16' E 103°49'0 0.0
2015-Jun-28 06:32N 01°16' E 103°49'0 0.0
2015-Jun-28 05:32N 01°16' E 103°49'0 0.0
2015-Jun-28 04:32N 01°16' E 103°49'0 0.0
2015-Jun-28 03:32N 01°16' E 103°49'0 0.0
2015-Jun-28 02:32N 01°16' E 103°49'0 0.0
2015-Jun-28 01:32N 01°16' E 103°49'0 0.0
2015-Jun-28 00:23N 01°16' E 103°49'1 1.4
2015-Jun-27 23:33N 01°15' E 103°48'1212.0
2015-Jun-27 22:33N 01°13' E 103°36'7314.7
2015-Jun-27 17:33N 01°45' E 102°31'1615.9
2015-Jun-27 16:33N 01°52' E 102°16'1615.9
2015-Jun-27 15:33N 02°03' E 102°05'  
2015-Jun-25 10:33N 01°11' E 103°40'8 8.4
2015-Jun-25 09:34N 01°15' E 103°47'2 2.4
2015-Jun-25 08:32N 01°16' E 103°49'0 0.0
2015-Jun-25 07:29N 01°16' E 103°49'0 0.0
2015-Jun-25 06:32N 01°16' E 103°49'0 0.0
2015-Jun-25 05:29N 01°16' E 103°49'0 0.0
2015-Jun-25 04:29N 01°16' E 103°49'0 0.0
2015-Jun-25 03:32N 01°16' E 103°49'0 0.0
2015-Jun-25 02:29N 01°16' E 103°49'0 0.0
2015-Jun-25 01:29N 01°16' E 103°49'0 0.0
2015-Jun-25 00:29N 01°16' E 103°49'0 0.0
2015-Jun-24 23:29N 01°16' E 103°49'0 0.0
2015-Jun-24 22:29N 01°16' E 103°49'0 0.0
2015-Jun-24 21:32N 01°16' E 103°49'4 4.1
2015-Jun-24 20:33N 01°12' E 103°50'1413.7
2015-Jun-24 19:33N 01°16' E 104°03'  
2015-Jun-19 11:11S 12°15' E 130°01'1219.0
2015-Jun-19 10:33S 12°16' E 130°13'1817.7
2015-Jun-19 09:34S 12°18' E 130°32'1313.2
2015-Jun-19 08:33S 12°22' E 130°44'9 8.8
2015-Jun-19 07:33S 12°28' E 130°51'0 0.0
2015-Jun-19 06:33S 12°28' E 130°51'0 0.0
2015-Jun-19 05:33S 12°28' E 130°51'0 0.0
2015-Jun-19 04:33S 12°28' E 130°51'0 0.0
2015-Jun-19 03:33S 12°28' E 130°51'0 0.0
2015-Jun-19 02:33S 12°28' E 130°51'0 0.0
2015-Jun-19 01:33S 12°28' E 130°51'0 0.0
2015-Jun-19 00:33S 12°28' E 130°51'0 0.0
2015-Jun-18 23:33S 12°28' E 130°51'6 6.0
2015-Jun-18 22:34S 12°24' E 130°46'1111.3
2015-Jun-18 21:33S 12°13' E 130°47'1615.5
2015-Jun-18 20:33S 12°05' E 131°00'1515.3
2015-Jun-18 19:34S 12°00' E 131°15'  

Dump ship's entire track history